Time;durP1;ratioP1;P1;durP2;ratioP2;P2;SDS_P1;SDS_P2;PMS_P1;PMS_P2;Temp;Humidity;BMP_temperature;BMP_pressure;BME280_temperature;BME280_humidity;BME280_pressure;Samples;Min_cycle;Max_cycle;Signal;HPM_P1;HPM_P2
2021/10/28 00:12:44;;;;;;;21.23;15.50;;;;;;;;;;5055529;28;20391;-82
2021/10/28 00:15:22;;;;;;;20.23;15.35;;;;;;;;;;5056763;28;20802;-83
2021/10/28 00:18:05;;;;;;;19.33;14.82;;;;;;;;;;5057909;28;20416;-83
2021/10/28 00:20:34;;;;;;;20.15;14.80;;;;;;;;;;5057290;28;20416;-83
2021/10/28 00:23:03;;;;;;;18.95;14.32;;;;;;;;;;5059340;28;20549;-83
2021/10/28 00:25:29;;;;;;;18.55;14.27;;;;;;;;;;5057370;28;20527;-82
2021/10/28 00:27:56;;;;;;;20.67;14.73;;;;;;;;;;5058817;28;20408;-83
2021/10/28 00:30:23;;;;;;;19.73;14.00;;;;;;;;;;5061963;28;21113;-82
2021/10/28 00:32:50;;;;;;;18.33;13.95;;;;;;;;;;5058492;28;20396;-83
2021/10/28 00:35:17;;;;;;;16.42;12.95;;;;;;;;;;5057325;28;20894;-83
2021/10/28 00:37:44;;;;;;;16.77;13.10;;;;;;;;;;5059890;28;20414;-83
2021/10/28 00:40:13;;;;;;;17.50;12.77;;;;;;;;;;5056218;28;20405;-83
2021/10/28 00:42:40;;;;;;;17.02;12.73;;;;;;;;;;5056495;28;20511;-83
2021/10/28 00:45:10;;;;;;;16.30;12.57;;;;;;;;;;5056549;28;20892;-83
2021/10/28 00:47:39;;;;;;;15.10;12.27;;;;;;;;;;5063353;28;20897;-83
2021/10/28 00:50:08;;;;;;;15.48;12.00;;;;;;;;;;5055576;28;20751;-83
2021/10/28 00:52:35;;;;;;;14.10;12.40;;;;;;;;;;5056317;28;20465;-83
2021/10/28 00:55:02;;;;;;;15.90;12.77;;;;;;;;;;5060549;28;20411;-83
2021/10/28 00:57:31;;;;;;;17.02;12.45;;;;;;;;;;5058516;28;20410;-82
2021/10/28 00:59:59;;;;;;;16.92;12.25;;;;;;;;;;5058874;28;20814;-83
2021/10/28 01:02:26;;;;;;;15.05;11.82;;;;;;;;;;5061661;28;20410;-82
2021/10/28 01:04:53;;;;;;;13.70;11.63;;;;;;;;;;5057222;28;20395;-83
2021/10/28 01:07:20;;;;;;;16.00;11.90;;;;;;;;;;5057979;28;20394;-83
2021/10/28 01:09:47;;;;;;;16.30;11.52;;;;;;;;;;5056294;28;20407;-83
2021/10/28 01:12:13;;;;;;;14.63;10.80;;;;;;;;;;5058612;28;20407;-83
2021/10/28 01:14:44;;;;;;;16.30;10.60;;;;;;;;;;5055888;28;20409;-84
2021/10/28 01:17:11;;;;;;;12.30;10.48;;;;;;;;;;5060844;28;20812;-83
2021/10/28 01:19:39;;;;;;;12.52;10.07;;;;;;;;;;5055739;28;20517;-83
2021/10/28 01:22:07;;;;;;;11.50;9.60;;;;;;;;;;5059158;28;20448;-83
2021/10/28 01:24:35;;;;;;;11.73;9.57;;;;;;;;;;5055887;28;20501;-83
2021/10/28 01:27:03;;;;;;;11.50;9.68;;;;;;;;;;5058047;28;20407;-83
2021/10/28 01:29:32;;;;;;;10.23;9.02;;;;;;;;;;5058489;28;21169;-84
2021/10/28 01:32:00;;;;;;;12.57;9.75;;;;;;;;;;5059332;28;20441;-83
2021/10/28 01:34:27;;;;;;;11.40;8.80;;;;;;;;;;5057295;28;20404;-83
2021/10/28 01:36:55;;;;;;;11.00;8.68;;;;;;;;;;5057211;28;20889;-83
2021/10/28 01:39:25;;;;;;;12.73;8.80;;;;;;;;;;5056424;28;20404;-83
2021/10/28 01:41:54;;;;;;;11.05;9.20;;;;;;;;;;5057065;28;20401;-82
2021/10/28 01:44:21;;;;;;;11.75;8.93;;;;;;;;;;5056194;28;20431;-83
2021/10/28 01:46:49;;;;;;;11.45;8.63;;;;;;;;;;5059564;28;20408;-83
2021/10/28 01:49:27;;;;;;;10.63;8.48;;;;;;;;;;5058220;28;20406;-83
2021/10/28 01:51:56;;;;;;;11.10;8.70;;;;;;;;;;5056487;28;20763;-83
2021/10/28 01:54:29;;;;;;;10.73;8.52;;;;;;;;;;5056662;28;20446;-82
2021/10/28 01:56:57;;;;;;;11.15;8.15;;;;;;;;;;5056731;28;20502;-83
2021/10/28 01:59:23;;;;;;;10.15;8.25;;;;;;;;;;5061192;28;20409;-83
2021/10/28 02:01:50;;;;;;;10.20;8.40;;;;;;;;;;5067160;28;20455;-83
2021/10/28 02:04:18;;;;;;;10.93;8.60;;;;;;;;;;5067190;28;20421;-83
2021/10/28 02:06:44;;;;;;;12.63;9.18;;;;;;;;;;5067341;28;20922;-83
2021/10/28 02:09:11;;;;;;;10.10;8.25;;;;;;;;;;5066811;28;20403;-83
2021/10/28 02:11:40;;;;;;;10.88;8.10;;;;;;;;;;5067074;28;20415;-83
2021/10/28 02:14:07;;;;;;;11.48;9.07;;;;;;;;;;5067153;28;20970;-83
2021/10/28 02:16:36;;;;;;;11.23;8.23;;;;;;;;;;5066161;28;20433;-83
2021/10/28 02:19:04;;;;;;;11.40;8.65;;;;;;;;;;5067100;28;20449;-82
2021/10/28 02:21:31;;;;;;;11.02;8.43;;;;;;;;;;5066913;28;20487;-82
2021/10/28 02:23:58;;;;;;;11.68;8.98;;;;;;;;;;5067103;28;20425;-82
2021/10/28 02:26:25;;;;;;;11.10;8.85;;;;;;;;;;5067177;28;20417;-83
2021/10/28 02:28:54;;;;;;;11.55;9.02;;;;;;;;;;5066140;28;20484;-82
2021/10/28 02:31:21;;;;;;;10.02;8.80;;;;;;;;;;5066194;28;20467;-83
2021/10/28 02:33:48;;;;;;;12.80;9.52;;;;;;;;;;5066655;28;20398;-82
2021/10/28 02:36:15;;;;;;;10.35;8.52;;;;;;;;;;5066704;28;20394;-83
2021/10/28 02:38:42;;;;;;;11.10;8.65;;;;;;;;;;5066639;28;20414;-83
2021/10/28 02:41:09;;;;;;;12.50;9.07;;;;;;;;;;5065976;28;20403;-83
2021/10/28 02:43:36;;;;;;;10.45;8.75;;;;;;;;;;5066259;28;20461;-83
2021/10/28 02:46:04;;;;;;;11.93;8.70;;;;;;;;;;5065512;28;20495;-83
2021/10/28 02:48:31;;;;;;;13.70;8.73;;;;;;;;;;5066040;28;20415;-83
2021/10/28 02:50:58;;;;;;;10.98;8.50;;;;;;;;;;5066178;28;20394;-83
2021/10/28 02:53:24;;;;;;;10.32;8.38;;;;;;;;;;5066006;28;20902;-83
2021/10/28 02:55:51;;;;;;;10.27;8.43;;;;;;;;;;5066029;28;20406;-82
2021/10/28 02:58:18;;;;;;;12.15;8.80;;;;;;;;;;5065902;28;20794;-82
2021/10/28 03:00:45;;;;;;;10.77;8.40;;;;;;;;;;5065038;28;20502;-83
2021/10/28 03:03:13;;;;;;;9.65;8.00;;;;;;;;;;5065719;28;20420;-83
2021/10/28 03:05:40;;;;;;;10.33;8.27;;;;;;;;;;5065674;28;20449;-83
2021/10/28 03:08:07;;;;;;;10.30;8.13;;;;;;;;;;5065984;28;20412;-83
2021/10/28 03:10:34;;;;;;;8.50;7.60;;;;;;;;;;5065712;28;20771;-83
2021/10/28 03:13:01;;;;;;;9.40;7.53;;;;;;;;;;5065703;28;20442;-83
2021/10/28 03:15:33;;;;;;;9.07;7.78;;;;;;;;;;5064577;28;20407;-82
2021/10/28 03:26:26;;;;;;;9.13;7.20;;;;;;;;;;5065115;28;20477;-83
2021/10/28 03:28:53;;;;;;;8.20;7.15;;;;;;;;;;5064921;28;21024;-83
2021/10/28 03:31:20;;;;;;;9.00;7.32;;;;;;;;;;5065054;28;20397;-83
2021/10/28 03:33:49;;;;;;;8.73;7.22;;;;;;;;;;5064881;28;20403;-83
2021/10/28 03:36:25;;;;;;;9.80;7.85;;;;;;;;;;5065528;28;20438;-83
2021/10/28 03:39:01;;;;;;;8.10;6.95;;;;;;;;;;5065164;28;20472;-83
2021/10/28 03:50:08;;;;;;;9.07;7.32;;;;;;;;;;5045894;28;20439;-83
2021/10/28 04:04:19;;;;;;;10.88;7.57;;;;;;;;;;5016958;28;20580;-82
2021/10/28 04:18:06;;;;;;;8.38;6.80;;;;;;;;;;5062700;28;20396;-83
2021/10/28 04:20:59;;;;;;;10.27;7.80;;;;;;;;;;5062572;28;20508;-82
2021/10/28 04:29:03;;;;;;;10.38;7.28;;;;;;;;;;5065809;28;20897;-82
2021/10/28 04:31:32;;;;;;;8.75;7.20;;;;;;;;;;5063788;28;20484;-83
2021/10/28 04:34:01;;;;;;;10.52;7.82;;;;;;;;;;5062331;28;20479;-83
2021/10/28 04:36:30;;;;;;;8.93;7.82;;;;;;;;;;5060930;28;20456;-84
2021/10/28 04:39:33;;;;;;;11.43;7.97;;;;;;;;;;5060495;28;20805;-84
2021/10/28 04:42:01;;;;;;;10.27;8.20;;;;;;;;;;5043842;28;20453;-83
2021/10/28 04:44:28;;;;;;;12.82;8.15;;;;;;;;;;5055388;28;20431;-83
2021/10/28 04:46:55;;;;;;;9.60;7.85;;;;;;;;;;5060191;28;20786;-83
2021/10/28 04:49:22;;;;;;;9.52;8.20;;;;;;;;;;5056119;28;20668;-83
2021/10/28 04:51:50;;;;;;;9.35;8.00;;;;;;;;;;5058963;28;20401;-82
2021/10/28 04:54:17;;;;;;;10.45;7.90;;;;;;;;;;5055848;28;20400;-83
2021/10/28 04:56:44;;;;;;;8.57;7.28;;;;;;;;;;5057609;28;20612;-82
2021/10/28 04:59:12;;;;;;;10.05;7.78;;;;;;;;;;5060434;28;20413;-83
2021/10/28 05:01:39;;;;;;;9.40;7.68;;;;;;;;;;5060475;28;20465;-83
2021/10/28 05:04:06;;;;;;;9.23;7.82;;;;;;;;;;5060812;28;20437;-83
2021/10/28 05:06:32;;;;;;;10.80;7.82;;;;;;;;;;5056749;28;20398;-82
2021/10/28 05:09:00;;;;;;;9.32;7.68;;;;;;;;;;5057361;28;20405;-83
2021/10/28 05:11:28;;;;;;;10.30;7.70;;;;;;;;;;5058225;28;20420;-83
2021/10/28 05:13:55;;;;;;;11.70;8.30;;;;;;;;;;5056768;28;20437;-83
2021/10/28 05:16:23;;;;;;;12.43;8.23;;;;;;;;;;5064860;28;20407;-82
2021/10/28 05:18:50;;;;;;;10.25;7.75;;;;;;;;;;5051040;28;20464;-82
2021/10/28 05:21:17;;;;;;;13.27;9.75;;;;;;;;;;5054542;28;20410;-82
2021/10/28 05:23:46;;;;;;;15.30;9.93;;;;;;;;;;5059103;28;20423;-82
2021/10/28 05:26:12;;;;;;;10.55;8.63;;;;;;;;;;5058804;28;20413;-82
2021/10/28 05:28:39;;;;;;;15.50;11.60;;;;;;;;;;5062961;28;20425;-85
2021/10/28 05:31:06;;;;;;;15.23;10.82;;;;;;;;;;5062713;28;20457;-83
2021/10/28 05:33:35;;;;;;;14.57;10.52;;;;;;;;;;5057142;28;20393;-83
2021/10/28 05:36:02;;;;;;;13.97;9.70;;;;;;;;;;5060421;28;20406;-83
2021/10/28 05:38:29;;;;;;;10.93;8.40;;;;;;;;;;5059491;28;20457;-87
2021/10/28 05:40:56;;;;;;;11.30;9.00;;;;;;;;;;5061597;28;20396;-83
2021/10/28 05:43:23;;;;;;;12.93;9.30;;;;;;;;;;5055074;28;20407;-82
2021/10/28 05:45:50;;;;;;;23.67;15.52;;;;;;;;;;5059759;28;20399;-83
2021/10/28 05:48:17;;;;;;;106.97;63.03;;;;;;;;;;5056459;28;20512;-83
2021/10/28 05:50:47;;;;;;;105.80;56.70;;;;;;;;;;5054263;28;20411;-83
2021/10/28 05:53:14;;;;;;;73.85;41.92;;;;;;;;;;5055186;28;21114;-81
2021/10/28 05:55:41;;;;;;;56.08;33.95;;;;;;;;;;5057822;28;20409;-83
2021/10/28 05:58:07;;;;;;;58.92;40.05;;;;;;;;;;5056426;28;20396;-84
2021/10/28 06:00:34;;;;;;;41.67;30.95;;;;;;;;;;5058849;28;20401;-83
2021/10/28 06:03:01;;;;;;;19.35;14.13;;;;;;;;;;5062168;28;20945;-84
2021/10/28 06:05:29;;;;;;;23.58;16.48;;;;;;;;;;5056090;28;20461;-83
2021/10/28 06:07:57;;;;;;;18.25;14.90;;;;;;;;;;5052943;28;20453;-84
2021/10/28 06:10:24;;;;;;;14.52;11.63;;;;;;;;;;5056605;28;20445;-83
2021/10/28 06:12:52;;;;;;;13.10;8.98;;;;;;;;;;5053455;28;20762;-83
2021/10/28 06:15:20;;;;;;;12.95;9.30;;;;;;;;;;5055373;28;20455;-83
2021/10/28 06:17:51;;;;;;;13.02;9.80;;;;;;;;;;5056461;28;20482;-83
2021/10/28 06:20:19;;;;;;;12.70;8.70;;;;;;;;;;5052789;28;20942;-83
2021/10/28 06:22:46;;;;;;;19.35;12.65;;;;;;;;;;5056678;28;20444;-83
2021/10/28 06:25:15;;;;;;;14.38;11.73;;;;;;;;;;5054816;28;20423;-83
2021/10/28 06:27:42;;;;;;;13.05;10.52;;;;;;;;;;5057752;28;20447;-83
2021/10/28 06:30:09;;;;;;;12.67;10.50;;;;;;;;;;5056286;28;20407;-83
2021/10/28 06:32:43;;;;;;;12.13;10.30;;;;;;;;;;5059072;28;20440;-83
2021/10/28 06:35:10;;;;;;;13.88;10.68;;;;;;;;;;5055948;28;20461;-83
2021/10/28 06:37:37;;;;;;;13.07;11.68;;;;;;;;;;5055662;28;20415;-83
2021/10/28 06:40:05;;;;;;;12.48;9.65;;;;;;;;;;5056370;28;20405;-83
2021/10/28 06:42:33;;;;;;;15.82;10.48;;;;;;;;;;5056338;28;20440;-83
2021/10/28 06:48:03;;;;;;;11.68;8.60;;;;;;;;;;5054935;28;20787;-84
2021/10/28 06:50:34;;;;;;;13.20;8.65;;;;;;;;;;5056464;28;20411;-83
2021/10/28 06:53:09;;;;;;;14.75;9.48;;;;;;;;;;5056894;28;20490;-83
2021/10/28 06:55:41;;;;;;;12.88;8.90;;;;;;;;;;5056930;28;20450;-84
2021/10/28 07:03:39;;;;;;;14.07;8.75;;;;;;;;;;5055018;28;20404;-83
2021/10/28 07:06:09;;;;;;;12.02;8.70;;;;;;;;;;5056220;28;20417;-84
2021/10/28 07:08:39;;;;;;;11.32;8.02;;;;;;;;;;5056560;28;20461;-83
2021/10/28 07:11:09;;;;;;;10.80;8.30;;;;;;;;;;5057356;28;20410;-83
2021/10/28 07:13:40;;;;;;;11.77;8.10;;;;;;;;;;5055251;28;20494;-83
2021/10/28 07:16:19;;;;;;;11.32;7.68;;;;;;;;;;5058707;28;20406;-83
2021/10/28 07:18:54;;;;;;;11.48;8.00;;;;;;;;;;5061032;28;20429;-84
2021/10/28 07:32:30;;;;;;;13.10;8.50;;;;;;;;;;5060514;28;20378;-73
2021/10/28 07:35:14;;;;;;;11.02;8.25;;;;;;;;;;5058314;28;20403;-84
2021/10/28 08:00:06;;;;;;;13.03;9.77;;;;;;;;;;5057561;28;20824;-84
2021/10/28 08:16:55;;;;;;;11.57;8.43;;;;;;;;;;5021528;28;20489;-83
2021/10/28 08:19:29;;;;;;;12.45;9.00;;;;;;;;;;5057392;28;20808;-83
2021/10/28 08:21:58;;;;;;;9.60;8.23;;;;;;;;;;5055163;28;20395;-84
2021/10/28 08:29:57;;;;;;;11.52;8.93;;;;;;;;;;5061178;28;20596;-85
2021/10/28 08:32:23;;;;;;;11.20;8.77;;;;;;;;;;5056272;28;20479;-84
2021/10/28 08:34:53;;;;;;;11.15;8.73;;;;;;;;;;5054990;28;20433;-83
2021/10/28 08:37:22;;;;;;;11.65;9.07;;;;;;;;;;5057083;28;20942;-83
2021/10/28 08:39:52;;;;;;;12.88;9.50;;;;;;;;;;5055006;28;20460;-83
2021/10/28 08:42:22;;;;;;;17.10;12.37;;;;;;;;;;5056429;28;20874;-84
2021/10/28 08:44:50;;;;;;;17.10;12.50;;;;;;;;;;5054609;28;20923;-84
2021/10/28 08:47:19;;;;;;;10.35;8.82;;;;;;;;;;5061361;28;20463;-84
2021/10/28 08:49:49;;;;;;;20.37;15.73;;;;;;;;;;5055199;28;21527;-83
2021/10/28 08:52:34;;;;;;;14.30;9.50;;;;;;;;;;5056935;28;20809;-83
2021/10/28 08:55:14;;;;;;;12.75;9.50;;;;;;;;;;5056085;28;20969;-83
2021/10/28 09:26:25;;;;;;;11.68;8.43;;;;;;;;;;5057170;28;20459;-84
2021/10/28 09:29:02;;;;;;;10.98;8.63;;;;;;;;;;5058602;28;20407;-84
2021/10/28 09:31:33;;;;;;;10.32;8.55;;;;;;;;;;5056089;28;20493;-84
2021/10/28 09:34:10;;;;;;;9.73;8.67;;;;;;;;;;5055080;28;20407;-84
2021/10/28 09:45:17;;;;;;;12.00;8.63;;;;;;;;;;5054360;28;20776;-84
2021/10/28 09:47:51;;;;;;;10.35;8.82;;;;;;;;;;5057889;28;20414;-85
2021/10/28 09:50:22;;;;;;;11.35;8.98;;;;;;;;;;5054211;28;20402;-84
2021/10/28 09:53:14;;;;;;;9.52;8.52;;;;;;;;;;5056772;28;20852;-84
2021/10/28 09:58:33;;;;;;;12.52;10.00;;;;;;;;;;5056491;28;20523;-84
2021/10/28 10:01:01;;;;;;;11.82;9.15;;;;;;;;;;5057385;28;20455;-84
2021/10/28 10:03:31;;;;;;;10.70;9.55;;;;;;;;;;5055540;28;20410;-84
2021/10/28 10:06:01;;;;;;;16.15;12.60;;;;;;;;;;5058180;28;20431;-84
2021/10/28 10:08:29;;;;;;;11.63;9.25;;;;;;;;;;5057069;28;20400;-84
2021/10/28 10:10:56;;;;;;;9.87;8.20;;;;;;;;;;5055587;28;21074;-84
2021/10/28 10:13:24;;;;;;;11.13;7.85;;;;;;;;;;5058656;28;20839;-83
2021/10/28 10:15:54;;;;;;;10.30;8.30;;;;;;;;;;5060838;28;20406;-84
2021/10/28 10:18:23;;;;;;;11.48;8.00;;;;;;;;;;5053609;28;20485;-83
2021/10/28 10:20:53;;;;;;;11.60;8.18;;;;;;;;;;5055387;28;20406;-84
2021/10/28 11:25:47;;;;;;;5.78;4.60;;;;;;;;;;5053602;28;20441;-84
2021/10/28 12:17:00;;;;;;;6.77;4.60;;;;;;;;;;4999005;28;20414;-83
2021/10/28 12:44:54;;;;;;;6.75;4.07;;;;;;;;;;4990193;28;20737;-83
2021/10/28 12:53:28;;;;;;;7.35;4.72;;;;;;;;;;5053341;28;20421;-83
2021/10/28 12:56:20;;;;;;;6.77;4.57;;;;;;;;;;5058786;28;20527;-83
2021/10/28 13:35:42;;;;;;;4.88;4.32;;;;;;;;;;5024557;28;20593;-82
2021/10/28 13:49:39;;;;;;;6.60;4.43;;;;;;;;;;5056238;28;20435;-83
2021/10/28 13:52:18;;;;;;;5.32;4.45;;;;;;;;;;5055096;28;20422;-83
2021/10/28 13:55:14;;;;;;;7.28;4.45;;;;;;;;;;5052311;28;20404;-84
2021/10/28 14:39:29;;;;;;;7.50;4.85;;;;;;;;;;5067728;28;20931;-83
2021/10/28 15:01:57;;;;;;;8.48;5.07;;;;;;;;;;5072849;27;20409;-83
2021/10/28 15:29:22;;;;;;;7.13;5.10;;;;;;;;;;5108033;27;20417;-85
2021/10/28 15:32:30;;;;;;;7.10;5.20;;;;;;;;;;5106546;27;20754;-85
2021/10/28 15:40:34;;;;;;;7.18;5.68;;;;;;;;;;5109053;27;20418;-85
2021/10/28 15:57:09;;;;;;;12.85;7.18;;;;;;;;;;5096320;28;20406;-84
2021/10/28 15:59:49;;;;;;;12.27;8.90;;;;;;;;;;5106440;28;20500;-85
2021/10/28 16:24:09;;;;;;;15.50;7.20;;;;;;;;;;5104051;28;20425;-86
2021/10/28 16:26:37;;;;;;;10.73;6.75;;;;;;;;;;5105970;28;20459;-85
2021/10/28 16:29:07;;;;;;;15.45;6.63;;;;;;;;;;5107677;27;20402;-86
2021/10/28 16:31:35;;;;;;;17.17;6.43;;;;;;;;;;5105249;27;20857;-86
2021/10/28 16:34:02;;;;;;;12.85;6.20;;;;;;;;;;5107545;28;20405;-85
2021/10/28 16:36:29;;;;;;;11.30;6.65;;;;;;;;;;5104418;28;20434;-85
2021/10/28 16:38:58;;;;;;;12.00;6.45;;;;;;;;;;5108689;27;20413;-85
2021/10/28 16:41:24;;;;;;;14.27;6.87;;;;;;;;;;5112848;27;20961;-85
2021/10/28 16:43:51;;;;;;;9.68;6.78;;;;;;;;;;5108539;27;20451;-85
2021/10/28 16:46:20;;;;;;;15.25;7.45;;;;;;;;;;5103322;27;20407;-86
2021/10/28 16:48:46;;;;;;;15.95;7.32;;;;;;;;;;5107069;28;20758;-85
2021/10/28 16:51:14;;;;;;;15.90;7.90;;;;;;;;;;5105483;28;20798;-85
2021/10/28 16:53:42;;;;;;;17.08;9.25;;;;;;;;;;5105891;28;20398;-85
2021/10/28 16:56:09;;;;;;;13.30;9.35;;;;;;;;;;5109522;28;20726;-85
2021/10/28 16:58:36;;;;;;;17.27;9.68;;;;;;;;;;5111817;27;20727;-85
2021/10/28 17:01:03;;;;;;;16.05;10.00;;;;;;;;;;5105301;28;21632;-85
2021/10/28 17:03:31;;;;;;;17.70;9.77;;;;;;;;;;5105492;28;20395;-85
2021/10/28 17:05:58;;;;;;;15.20;9.70;;;;;;;;;;5106859;27;20394;-86
2021/10/28 17:08:26;;;;;;;16.50;9.73;;;;;;;;;;5103237;28;20401;-90
2021/10/28 17:10:53;;;;;;;16.02;9.57;;;;;;;;;;5131925;27;20759;-84
2021/10/28 17:13:20;;;;;;;18.08;11.88;;;;;;;;;;5104409;27;20434;-83
2021/10/28 17:15:47;;;;;;;21.98;12.82;;;;;;;;;;5104523;27;20426;-84
2021/10/28 17:18:14;;;;;;;19.95;13.20;;;;;;;;;;5106454;27;20406;-85
2021/10/28 17:20:42;;;;;;;25.73;14.68;;;;;;;;;;5109516;27;20416;-86
2021/10/28 17:23:13;;;;;;;23.15;13.38;;;;;;;;;;5105605;27;20759;-85
2021/10/28 17:25:40;;;;;;;26.13;14.27;;;;;;;;;;5108840;27;20414;-76
2021/10/28 17:28:08;;;;;;;25.95;15.25;;;;;;;;;;5111301;27;20400;-85
2021/10/28 17:30:35;;;;;;;28.25;15.88;;;;;;;;;;5105363;27;20412;-86
2021/10/28 17:33:02;;;;;;;28.27;18.25;;;;;;;;;;5111448;27;20808;-86
2021/10/28 17:35:29;;;;;;;22.35;15.38;;;;;;;;;;5106874;28;20552;-85
2021/10/28 17:37:57;;;;;;;24.05;15.77;;;;;;;;;;5107468;27;21006;-86
2021/10/28 17:40:25;;;;;;;32.22;22.42;;;;;;;;;;5108797;27;21055;-85
2021/10/28 17:42:54;;;;;;;26.90;17.55;;;;;;;;;;5107231;28;20402;-85
2021/10/28 17:45:25;;;;;;;24.60;15.48;;;;;;;;;;5105328;27;20477;-85
2021/10/28 17:47:53;;;;;;;25.17;14.82;;;;;;;;;;5106799;27;20414;-85
2021/10/28 17:50:20;;;;;;;23.33;15.88;;;;;;;;;;5107844;27;20398;-85
2021/10/28 17:52:47;;;;;;;24.30;16.57;;;;;;;;;;5106984;27;20386;-85
2021/10/28 17:55:15;;;;;;;24.88;16.42;;;;;;;;;;5108498;27;20720;-85
2021/10/28 17:57:44;;;;;;;31.08;19.10;;;;;;;;;;5102388;28;20403;-85
2021/10/28 18:00:12;;;;;;;29.67;16.80;;;;;;;;;;5105538;28;20411;-85
2021/10/28 18:02:40;;;;;;;29.77;18.23;;;;;;;;;;5105338;28;20390;-85
2021/10/28 18:05:08;;;;;;;36.30;26.92;;;;;;;;;;5104893;28;20402;-85
2021/10/28 18:07:35;;;;;;;35.10;25.43;;;;;;;;;;5111033;28;20399;-85
2021/10/28 18:10:02;;;;;;;33.38;21.73;;;;;;;;;;5105972;28;20893;-85
2021/10/28 18:12:31;;;;;;;27.33;20.75;;;;;;;;;;5106787;28;20502;-85
2021/10/28 18:14:59;;;;;;;23.55;17.48;;;;;;;;;;5106065;28;20433;-85
2021/10/28 18:17:27;;;;;;;29.17;17.73;;;;;;;;;;5104589;28;20406;-85
2021/10/28 18:19:56;;;;;;;28.50;17.75;;;;;;;;;;5106105;28;20418;-85
2021/10/28 18:22:23;;;;;;;29.45;19.15;;;;;;;;;;5106605;28;20409;-85
2021/10/28 18:24:50;;;;;;;24.33;17.65;;;;;;;;;;5105942;28;20395;-85
2021/10/28 18:27:17;;;;;;;29.77;19.50;;;;;;;;;;5105938;28;20410;-86
2021/10/28 18:29:46;;;;;;;31.58;18.00;;;;;;;;;;5104524;28;20914;-85
2021/10/28 18:32:13;;;;;;;26.60;18.30;;;;;;;;;;5099008;28;20929;-85
2021/10/28 18:34:40;;;;;;;24.88;18.27;;;;;;;;;;5105120;28;20481;-85
2021/10/28 18:37:08;;;;;;;31.08;19.80;;;;;;;;;;5104999;28;20429;-84
2021/10/28 18:39:35;;;;;;;30.23;20.52;;;;;;;;;;5100155;28;20405;-85
2021/10/28 18:42:03;;;;;;;26.63;20.40;;;;;;;;;;5100259;28;20501;-83
2021/10/28 18:44:29;;;;;;;27.70;20.10;;;;;;;;;;5106248;28;20394;-84
2021/10/28 18:46:58;;;;;;;26.10;19.02;;;;;;;;;;5102053;27;20751;-84
2021/10/28 18:49:25;;;;;;;27.25;18.80;;;;;;;;;;5106395;28;20410;-85
2021/10/28 18:51:52;;;;;;;28.73;19.58;;;;;;;;;;5105947;28;20415;-86
2021/10/28 18:54:20;;;;;;;27.80;18.98;;;;;;;;;;5107647;28;20417;-86
2021/10/28 18:56:47;;;;;;;27.42;19.35;;;;;;;;;;5106773;28;20940;-85
2021/10/28 18:59:14;;;;;;;26.33;17.77;;;;;;;;;;5106181;28;20402;-85
2021/10/28 19:01:42;;;;;;;29.77;18.83;;;;;;;;;;5103032;28;20410;-85
2021/10/28 19:04:11;;;;;;;24.58;17.65;;;;;;;;;;5102691;28;20455;-86
2021/10/28 19:06:39;;;;;;;25.08;18.02;;;;;;;;;;5103734;28;20394;-83
2021/10/28 19:09:05;;;;;;;25.17;17.63;;;;;;;;;;5105935;28;20766;-85
2021/10/28 19:11:32;;;;;;;23.58;17.70;;;;;;;;;;5106829;28;20917;-86
2021/10/28 19:13:59;;;;;;;25.88;18.25;;;;;;;;;;5106400;28;20442;-85
2021/10/28 19:16:26;;;;;;;26.37;19.03;;;;;;;;;;5106257;28;20399;-85
2021/10/28 19:18:54;;;;;;;26.05;18.30;;;;;;;;;;5106097;28;20813;-83
2021/10/28 19:21:22;;;;;;;23.52;17.77;;;;;;;;;;5107180;28;20440;-84
2021/10/28 19:23:49;;;;;;;28.38;19.05;;;;;;;;;;5107810;27;20739;-85
2021/10/28 19:26:16;;;;;;;26.73;19.05;;;;;;;;;;5106945;28;21123;-85
2021/10/28 19:28:44;;;;;;;26.90;17.77;;;;;;;;;;5108028;28;20413;-85
2021/10/28 19:31:14;;;;;;;26.38;19.33;;;;;;;;;;5114016;28;20395;-86
2021/10/28 19:33:44;;;;;;;24.65;18.50;;;;;;;;;;5130067;27;20416;-85
2021/10/28 19:36:15;;;;;;;24.98;19.65;;;;;;;;;;5120576;28;20894;-84
2021/10/28 19:39:10;;;;;;;27.83;18.73;;;;;;;;;;5111619;28;20406;-85
2021/10/28 19:47:14;;;;;;;27.13;18.80;;;;;;;;;;5116652;27;20427;-83
2021/10/28 19:49:43;;;;;;;27.02;18.52;;;;;;;;;;5113023;27;20410;-85
2021/10/28 19:52:12;;;;;;;25.35;18.55;;;;;;;;;;5121742;27;20806;-83
2021/10/28 19:54:41;;;;;;;25.63;18.95;;;;;;;;;;5117395;27;20398;-84
2021/10/28 19:57:14;;;;;;;29.10;19.02;;;;;;;;;;5133131;27;20875;-85
2021/10/28 19:59:45;;;;;;;25.73;19.45;;;;;;;;;;5135623;27;20469;-85
2021/10/28 20:02:17;;;;;;;26.98;19.85;;;;;;;;;;5126185;27;20401;-84
2021/10/28 20:05:18;;;;;;;28.20;20.92;;;;;;;;;;5130252;27;20426;-83
2021/10/28 20:08:01;;;;;;;30.63;22.60;;;;;;;;;;5117786;27;20739;-86
2021/10/28 20:21:22;;;;;;;27.58;21.35;;;;;;;;;;5105367;28;20414;-85
2021/10/28 20:23:50;;;;;;;27.20;21.00;;;;;;;;;;5107121;27;20403;-85
2021/10/28 20:26:19;;;;;;;27.35;20.40;;;;;;;;;;5107571;28;20409;-84
2021/10/28 20:28:48;;;;;;;26.80;19.92;;;;;;;;;;5113245;28;20654;-85
2021/10/28 20:31:17;;;;;;;25.80;20.35;;;;;;;;;;5119881;27;20474;-85
2021/10/28 20:33:48;;;;;;;25.40;20.48;;;;;;;;;;5108441;28;20734;-84
2021/10/28 20:39:01;;;;;;;26.83;20.55;;;;;;;;;;5107724;28;20398;-85
2021/10/28 20:41:30;;;;;;;27.35;20.42;;;;;;;;;;5106435;28;21146;-86
2021/10/28 20:43:58;;;;;;;25.10;19.83;;;;;;;;;;5106569;28;20439;-85
2021/10/28 20:46:28;;;;;;;26.05;20.50;;;;;;;;;;5104611;27;20417;-86
2021/10/28 20:48:56;;;;;;;26.00;20.20;;;;;;;;;;5106069;28;20398;-86
2021/10/28 20:51:23;;;;;;;24.73;18.60;;;;;;;;;;5104554;28;20390;-84
2021/10/28 20:53:51;;;;;;;25.02;19.90;;;;;;;;;;5105672;28;20973;-86
2021/10/28 20:56:21;;;;;;;23.65;18.98;;;;;;;;;;5106450;28;20406;-85
2021/10/28 20:58:49;;;;;;;25.33;20.10;;;;;;;;;;5103754;27;20406;-86
2021/10/28 21:01:16;;;;;;;23.17;19.38;;;;;;;;;;5105060;28;20449;-85
2021/10/28 21:03:44;;;;;;;25.50;19.53;;;;;;;;;;5105455;28;20498;-86
2021/10/28 21:06:11;;;;;;;24.10;19.30;;;;;;;;;;5105607;28;20455;-86
2021/10/28 21:08:38;;;;;;;22.77;19.77;;;;;;;;;;5104868;28;20394;-85
2021/10/28 21:11:05;;;;;;;25.53;19.20;;;;;;;;;;5105763;28;20398;-85
2021/10/28 21:13:31;;;;;;;24.63;19.30;;;;;;;;;;5105331;28;20403;-85
2021/10/28 21:16:01;;;;;;;26.63;19.70;;;;;;;;;;5103344;27;20413;-86
2021/10/28 21:18:28;;;;;;;25.30;18.73;;;;;;;;;;5104454;28;20414;-86
2021/10/28 21:20:56;;;;;;;24.42;19.95;;;;;;;;;;5103253;28;20422;-84
2021/10/28 21:23:22;;;;;;;25.98;19.10;;;;;;;;;;5103795;28;20901;-84
2021/10/28 21:25:50;;;;;;;23.95;18.90;;;;;;;;;;5104793;28;20398;-86
2021/10/28 21:28:17;;;;;;;22.05;18.73;;;;;;;;;;5104632;27;20401;-85
2021/10/28 21:30:46;;;;;;;24.08;18.67;;;;;;;;;;5106982;28;20410;-84
2021/10/28 21:33:15;;;;;;;23.67;18.67;;;;;;;;;;5105405;28;20395;-85
2021/10/28 21:35:42;;;;;;;24.40;18.48;;;;;;;;;;5106186;28;20467;-85
2021/10/28 21:38:09;;;;;;;20.95;17.27;;;;;;;;;;5105917;28;20399;-86
2021/10/28 21:40:36;;;;;;;21.90;17.87;;;;;;;;;;5106124;28;20409;-85
2021/10/28 21:43:04;;;;;;;22.55;17.23;;;;;;;;;;5106092;28;20402;-85
2021/10/28 21:45:31;;;;;;;22.07;18.30;;;;;;;;;;5104224;28;20403;-85
2021/10/28 21:47:59;;;;;;;22.23;17.63;;;;;;;;;;5105765;28;20428;-85
2021/10/28 21:50:29;;;;;;;22.10;18.05;;;;;;;;;;5106736;28;20409;-86
2021/10/28 21:53:00;;;;;;;21.17;17.63;;;;;;;;;;5106920;28;20478;-85
2021/10/28 21:55:36;;;;;;;20.90;17.83;;;;;;;;;;5106756;28;20452;-85
2021/10/28 21:58:13;;;;;;;21.77;18.02;;;;;;;;;;5114052;28;20481;-86
2021/10/28 22:00:50;;;;;;;22.70;17.98;;;;;;;;;;5102371;28;20416;-86
2021/10/28 22:06:32;;;;;;;23.08;18.63;;;;;;;;;;5124512;27;20453;-87
2021/10/28 22:25:28;;;;;;;22.47;17.60;;;;;;;;;;5123887;28;20417;-86
2021/10/28 22:27:55;;;;;;;22.55;16.90;;;;;;;;;;5123962;28;20402;-86
2021/10/28 22:30:22;;;;;;;21.10;16.77;;;;;;;;;;5122421;27;20405;-85
2021/10/28 22:32:49;;;;;;;22.52;16.88;;;;;;;;;;5120047;28;20809;-87
2021/10/28 22:35:22;;;;;;;23.15;17.67;;;;;;;;;;5122395;27;20394;-85
2021/10/28 22:37:59;;;;;;;20.27;16.80;;;;;;;;;;5122547;28;20402;-86
2021/10/28 22:40:32;;;;;;;21.80;17.17;;;;;;;;;;5122174;28;20467;-85
2021/10/28 22:42:58;;;;;;;20.02;16.85;;;;;;;;;;5122045;28;20406;-85
2021/10/28 22:45:28;;;;;;;20.30;16.50;;;;;;;;;;5120907;27;20425;-85
2021/10/28 22:47:55;;;;;;;20.83;16.88;;;;;;;;;;5123696;28;20398;-85
2021/10/28 22:50:22;;;;;;;21.83;17.50;;;;;;;;;;5123556;28;20418;-85
2021/10/28 22:52:50;;;;;;;21.25;16.05;;;;;;;;;;5123746;27;20397;-85
2021/10/28 22:55:17;;;;;;;22.52;16.95;;;;;;;;;;5123638;28;20390;-85
2021/10/28 22:57:50;;;;;;;20.73;16.58;;;;;;;;;;5123598;27;20409;-85
2021/10/28 23:00:23;;;;;;;21.88;17.20;;;;;;;;;;5123337;27;20497;-85
2021/10/28 23:03:00;;;;;;;20.75;17.13;;;;;;;;;;5122806;28;20485;-86
2021/10/28 23:08:48;;;;;;;22.58;17.13;;;;;;;;;;5097606;28;20398;-86
2021/10/28 23:11:39;;;;;;;21.33;16.50;;;;;;;;;;5120019;28;20406;-85
2021/10/28 23:14:35;;;;;;;20.05;16.23;;;;;;;;;;5123225;27;20990;-85
2021/10/28 23:22:30;;;;;;;20.90;14.95;;;;;;;;;;5109568;28;20431;-84